地図

経路データ

SID SEASON NUMBER BASIN SUBBASIN NAME ISO_TIME NATURE LAT LON WMO_WIND WMO_PRES WMO_AGENCY TRACK_TYPE DIST2LAND LANDFALL IFLAG USA_AGENCY USA_ATCF_ID USA_LAT USA_LON USA_RECORD USA_STATUS USA_WIND USA_PRES USA_SSHS USA_R34_NE USA_R34_SE USA_R34_SW USA_R34_NW USA_R50_NE USA_R50_SE USA_R50_SW USA_R50_NW USA_R64_NE USA_R64_SE USA_R64_SW USA_R64_NW USA_POCI USA_ROCI USA_RMW USA_EYE TOKYO_LAT TOKYO_LON TOKYO_GRADE TOKYO_WIND TOKYO_PRES TOKYO_R50_DIR TOKYO_R50_LONG TOKYO_R50_SHORT TOKYO_R30_DIR TOKYO_R30_LONG TOKYO_R30_SHORT TOKYO_LAND CMA_LAT CMA_LON CMA_CAT CMA_WIND CMA_PRES HKO_LAT HKO_LON HKO_CAT HKO_WIND HKO_PRES NEWDELHI_LAT NEWDELHI_LON NEWDELHI_GRADE NEWDELHI_WIND NEWDELHI_PRES NEWDELHI_CI NEWDELHI_DP NEWDELHI_POCI REUNION_LAT REUNION_LON REUNION_TYPE REUNION_WIND REUNION_PRES REUNION_TNUM REUNION_CI REUNION_RMW REUNION_R34_NE REUNION_R34_SE REUNION_R34_SW REUNION_R34_NW REUNION_R50_NE REUNION_R50_SE REUNION_R50_SW REUNION_R50_NW REUNION_R64_NE REUNION_R64_SE REUNION_R64_SW REUNION_R64_NW BOM_LAT BOM_LON BOM_TYPE BOM_WIND BOM_PRES BOM_TNUM BOM_CI BOM_RMW BOM_R34_NE BOM_R34_SE BOM_R34_SW BOM_R34_NW BOM_R50_NE BOM_R50_SE BOM_R50_SW BOM_R50_NW BOM_R64_NE BOM_R64_SE BOM_R64_SW BOM_R64_NW BOM_ROCI BOM_POCI BOM_EYE BOM_POS_METHOD BOM_PRES_METHOD NADI_LAT NADI_LON NADI_CAT NADI_WIND NADI_PRES WELLINGTON_LAT WELLINGTON_LON WELLINGTON_WIND WELLINGTON_PRES DS824_LAT DS824_LON DS824_STAGE DS824_WIND DS824_PRES TD9636_LAT TD9636_LON TD9636_STAGE TD9636_WIND TD9636_PRES TD9635_LAT TD9635_LON TD9635_WIND TD9635_PRES TD9635_ROCI NEUMANN_LAT NEUMANN_LON NEUMANN_CLASS NEUMANN_WIND NEUMANN_PRES MLC_LAT MLC_LON MLC_CLASS MLC_WIND MLC_PRES USA_GUST BOM_GUST BOM_GUST_PER REUNION_GUST REUNION_GUST_PER USA_SEAHGT USA_SEARAD_NE USA_SEARAD_SE USA_SEARAD_SW USA_SEARAD_NW STORM_SPEED STORM_DIR
1969275N19276 1969 93 NA CS JENNY 1969-10-01 12:00:00 TS 19.0000 -83.7000 25 hurdat_atl main 284 214 O_____________ hurdat_atl AL241969 19.0000 -83.7000 TD 25 -1 13 22
1969275N19276 1969 93 NA CS JENNY 1969-10-01 15:00:00 TS 19.6226 -83.4404 main 210 129 P_____________ AL241969 19.6226 -83.4404 TD 25 -1 14 20
1969275N19276 1969 93 NA CS JENNY 1969-10-01 18:00:00 TS 20.3000 -83.2000 25 hurdat_atl main 129 49 O_____________ hurdat_atl AL241969 20.3000 -83.2000 TD 25 -1 15 16
1969275N19276 1969 93 NA CS JENNY 1969-10-01 21:00:00 TS 21.0574 -82.9924 main 39 0 P_____________ AL241969 21.0574 -82.9924 TD 25 -1 16 14
1969275N19276 1969 93 NA CS JENNY 1969-10-02 00:00:00 TS 21.8000 -82.8000 25 hurdat_atl main 0 0 O_____________ hurdat_atl AL241969 21.8000 -82.8000 TD 25 -1 14 16
1969275N19276 1969 93 NA CS JENNY 1969-10-02 03:00:00 TS 22.4150 -82.5775 main 33 0 P_____________ AL241969 22.4150 -82.5775 TD 25 -1 13 17
1969275N19276 1969 93 NA NA JENNY 1969-10-02 06:00:00 TS 23.0000 -82.4000 25 hurdat_atl main 0 0 O_____________ hurdat_atl AL241969 23.0000 -82.4000 TD 25 -1 13 10
1969275N19276 1969 93 NA NA JENNY 1969-10-02 09:00:00 TS 23.6499 -82.3346 main 55 55 P_____________ AL241969 23.6499 -82.3346 TD 27 -1 13 4
1969275N19276 1969 93 NA NA JENNY 1969-10-02 12:00:00 TS 24.3000 -82.3000 30 hurdat_atl main 134 106 O_____________ hurdat_atl AL241969 24.3000 -82.3000 TD 30 -1 13 5
1969275N19276 1969 93 NA GM JENNY 1969-10-02 15:00:00 TS 24.9300 -82.2150 main 106 60 P_____________ AL241969 24.9300 -82.2150 TD 35 0 12 9
1969275N19276 1969 93 NA GM JENNY 1969-10-02 18:00:00 TS 25.5000 -82.1000 40 1000 hurdat_atl main 60 29 O_____________ hurdat_atl AL241969 25.5000 -82.1000 TS 40 1000 0 11 12
1969275N19276 1969 93 NA GM JENNY 1969-10-02 21:00:00 TS 25.9649 -81.9796 main 22 0 P_____________ AL241969 25.9649 -81.9796 TS 37 0 9 17
1969275N19276 1969 93 NA NA JENNY 1969-10-03 00:00:00 TS 26.4000 -81.8000 35 hurdat_atl main 0 0 O_____________ hurdat_atl AL241969 26.4000 -81.8000 TS 35 0 10 24
1969275N19276 1969 93 NA NA JENNY 1969-10-03 03:00:00 TS 26.8851 -81.5151 main 0 0 P_____________ AL241969 26.8851 -81.5151 TS 32 -1 11 28
1969275N19276 1969 93 NA NA JENNY 1969-10-03 06:00:00 TS 27.4000 -81.2000 30 hurdat_atl main 0 0 O_____________ hurdat_atl AL241969 27.4000 -81.2000 TD 30 -1 12 26
1969275N19276 1969 93 NA NA JENNY 1969-10-03 09:00:00 TS 28.0025 -80.9054 main 0 0 P_____________ AL241969 28.0025 -80.9054 TD 30 -1 12 22
1969275N19276 1969 93 NA NA JENNY 1969-10-03 12:00:00 TS 28.5000 -80.7000 30 hurdat_atl main 0 0 O_____________ hurdat_atl AL241969 28.5000 -80.7000 TD 30 -1 8 18
1969275N19276 1969 93 NA NA JENNY 1969-10-03 15:00:00 TS 28.7174 -80.6471 main 9 0 P_____________ AL241969 28.7174 -80.6471 TD 30 -1 3 0
1969275N19276 1969 93 NA NA JENNY 1969-10-03 18:00:00 TS 28.8000 -80.7000 30 hurdat_atl main 9 0 O_____________ hurdat_atl AL241969 28.8000 -80.7000 TD 30 -1 2 330
1969275N19276 1969 93 NA NA JENNY 1969-10-03 21:00:00 TS 28.9150 -80.7775 main 0 0 P_____________ AL241969 28.9150 -80.7775 TD 27 -1 3 318
1969275N19276 1969 93 NA NA JENNY 1969-10-04 00:00:00 TS 29.0000 -80.9000 25 hurdat_atl main 0 0 O_____________ hurdat_atl AL241969 29.0000 -80.9000 TD 25 -1 3 304
1969275N19276 1969 93 NA NA JENNY 1969-10-04 03:00:00 TS 29.0725 -81.0500 main 0 0 P_____________ AL241969 29.0725 -81.0500 TD 25 -1 3 291
1969275N19276 1969 93 NA NA JENNY 1969-10-04 06:00:00 TS 29.1000 -81.2000 25 hurdat_atl main 0 0 O_____________ hurdat_atl AL241969 29.1000 -81.2000 TD 25 -1 2 272
1969275N19276 1969 93 NA NA JENNY 1969-10-04 09:00:00 TS 29.0800 -81.3000 main 0 0 P_____________ AL241969 29.0800 -81.3000 TD 25 -1 2 240
1969275N19276 1969 93 NA NA JENNY 1969-10-04 12:00:00 TS 29.0000 -81.4000 25 hurdat_atl main 0 0 O_____________ hurdat_atl AL241969 29.0000 -81.4000 TD 25 -1 2 221
1969275N19276 1969 93 NA NA JENNY 1969-10-04 15:00:00 TS 28.8946 -81.4819 main 0 0 P_____________ AL241969 28.8946 -81.4819 TD 25 -1 4 221
1969275N19276 1969 93 NA NA JENNY 1969-10-04 18:00:00 TS 28.7000 -81.7000 25 hurdat_atl main 0 0 O_____________ hurdat_atl AL241969 28.7000 -81.7000 TD 25 -1 8 228
1969275N19276 1969 93 NA NA JENNY 1969-10-04 21:00:00 TS 28.3574 -82.1606 main 0 0 P_____________ AL241969 28.3574 -82.1606 TD 25 -1 12 234
1969275N19276 1969 93 NA GM JENNY 1969-10-05 00:00:00 TS 28.0000 -82.8000 25 hurdat_atl main 0 0 O_____________ hurdat_atl AL241969 28.0000 -82.8000 TD 25 -1 13 243
1969275N19276 1969 93 NA GM JENNY 1969-10-05 03:00:00 TS 27.7550 -83.5200 main 59 59 P_____________ AL241969 27.7550 -83.5200 TD 25 -1 14 253
1969275N19276 1969 93 NA GM JENNY 1969-10-05 06:00:00 TS 27.6000 -84.3000 25 hurdat_atl main 141 141 O_____________ hurdat_atl AL241969 27.6000 -84.3000 TD 25 -1 14 260
1969275N19276 1969 93 NA GM JENNY 1969-10-05 09:00:00 TS 27.5197 -85.0571 main 220 220 P_____________ AL241969 27.5197 -85.0571 TD 25 -1 13 266
1969275N19276 1969 93 NA GM JENNY 1969-10-05 12:00:00 TS 27.5000 -85.8000 25 hurdat_atl main 248 248 O_____________ hurdat_atl AL241969 27.5000 -85.8000 TD 25 -1 13 269
1969275N19276 1969 93 NA GM JENNY 1969-10-05 15:00:00 TS 27.4920 -86.5073 main 267 250 P_____________ AL241969 27.4920 -86.5073 TD 25 -1 12 270
1969275N19276 1969 93 NA GM JENNY 1969-10-05 18:00:00 TS 27.5000 -87.2000 25 hurdat_atl main 250 204 O_____________ hurdat_atl AL241969 27.5000 -87.2000 TD 25 -1 12 270
1969275N19276 1969 93 NA GM JENNY 1969-10-05 21:00:00 TS 27.4997 -87.9000 main 204 174 P_____________ AL241969 27.4997 -87.9000 TD 25 -1 12 270
1969275N19276 1969 93 NA GM JENNY 1969-10-06 00:00:00 TS 27.5000 -88.6000 25 hurdat_atl main 174 167 O_____________ hurdat_atl AL241969 27.5000 -88.6000 TD 25 -1 12 270
1969275N19276 1969 93 NA GM JENNY 1969-10-06 03:00:00 TS 27.4997 -89.3000 main 168 168 P_____________ AL241969 27.4997 -89.3000 TD 25 -1 12 270
1969275N19276 1969 93 NA GM JENNY 1969-10-06 06:00:00 TS 27.5000 -90.0000 25 hurdat_atl main 178 178 O_____________ hurdat_atl AL241969 27.5000 -90.0000 TD 25 -1 12 270
1969275N19276 1969 93 NA GM JENNY 1969-10-06 09:00:00 TS 27.4997 -90.7000 main 178 178 P_____________ AL241969 27.4997 -90.7000 TD 25 -1 12 270
1969275N19276 1969 93 NA GM JENNY 1969-10-06 12:00:00 TS 27.5000 -91.4000 25 hurdat_atl main 185 185 O_____________ hurdat_atl AL241969 27.5000 -91.4000 TD 25 -1 12 270
1969275N19276 1969 93 NA GM JENNY 1969-10-06 15:00:00 TS 27.5007 -92.1000 main 213 213 P_____________ AL241969 27.5007 -92.1000 TD 25 -1 12 270
1969275N19276 1969 93 NA GM JENNY 1969-10-06 18:00:00 TS 27.5000 -92.8000 25 hurdat_atl main 228 O_____________ hurdat_atl AL241969 27.5000 -92.8000 TD 25 -1 12 270

IBTrACS Databaseについて

本データベースは、米国NOAAが公開する1842年以降の世界の熱帯低気圧のベストトラックデータアーカイブInternational Best Track Archive for Climate Stewardship (IBTrACS)を、ウェブで閲覧しやすい形式に変換したものです。

最終更新日:2021-11-26